Time;durP1;ratioP1;P1;durP2;ratioP2;P2;SDS_P1;SDS_P2;PMS_P1;PMS_P2;Temp;Humidity;BMP_temperature;BMP_pressure;BME280_temperature;BME280_humidity;BME280_pressure;Samples;Min_cycle;Max_cycle;Signal;HPM_P1;HPM_P2
2023/08/08 00:00:38;;;;;;;1.10;0.88;;;13.50;99.90;;;;;;5056102;28;20017;-65
2023/08/08 00:03:04;;;;;;;1.02;0.55;;;13.60;99.90;;;;;;5055176;28;20151;-65
2023/08/08 00:05:29;;;;;;;0.85;0.75;;;13.50;99.90;;;;;;5055165;28;20029;-65
2023/08/08 00:07:55;;;;;;;4.70;0.85;;;13.60;99.90;;;;;;5055087;28;20032;-66
2023/08/08 00:10:22;;;;;;;2.78;0.75;;;13.60;99.90;;;;;;5056276;28;20051;-65
2023/08/08 00:12:47;;;;;;;1.63;0.80;;;13.60;99.90;;;;;;5055257;28;20062;-65
2023/08/08 00:15:13;;;;;;;1.95;1.08;;;13.60;99.90;;;;;;5056200;28;20029;-65
2023/08/08 00:17:39;;;;;;;1.45;0.70;;;13.60;99.90;;;;;;5056050;28;20067;-65
2023/08/08 00:20:05;;;;;;;1.08;0.73;;;13.50;99.90;;;;;;5054836;28;20021;-65
2023/08/08 00:22:31;;;;;;;0.70;0.70;;;13.50;99.90;;;;;;5055899;28;20487;-65
2023/08/08 00:24:56;;;;;;;2.00;0.90;;;13.50;99.90;;;;;;5055013;28;20055;-65
2023/08/08 00:27:22;;;;;;;1.30;0.38;;;13.40;99.90;;;;;;5054746;28;20025;-65
2023/08/08 00:29:48;;;;;;;1.48;0.73;;;13.30;99.90;;;;;;5055960;28;20487;-65
2023/08/08 00:32:14;;;;;;;1.15;0.75;;;13.30;99.90;;;;;;5055941;28;20112;-65
2023/08/08 00:34:39;;;;;;;1.95;0.80;;;13.30;99.90;;;;;;5055923;28;20056;-65
2023/08/08 00:37:05;;;;;;;1.50;0.90;;;13.30;99.90;;;;;;5055509;28;20025;-65
2023/08/08 00:39:30;;;;;;;3.42;0.82;;;13.30;99.90;;;;;;5056001;28;20030;-65
2023/08/08 00:41:56;;;;;;;2.08;0.80;;;13.20;99.90;;;;;;5054339;28;20037;-65
2023/08/08 00:44:22;;;;;;;2.35;0.80;;;13.20;99.90;;;;;;5055675;28;20029;-65
2023/08/08 00:46:47;;;;;;;1.88;1.00;;;13.20;99.90;;;;;;5054610;28;20123;-65
2023/08/08 00:49:13;;;;;;;0.60;0.60;;;13.20;99.90;;;;;;5055603;28;20442;-65
2023/08/08 00:51:38;;;;;;;0.85;0.70;;;13.20;99.90;;;;;;5055365;28;20036;-65
2023/08/08 00:54:04;;;;;;;3.72;0.88;;;13.30;99.90;;;;;;5055207;28;20061;-65
2023/08/08 00:56:31;;;;;;;1.35;0.70;;;13.20;99.90;;;;;;5055718;28;20036;-65
2023/08/08 00:58:57;;;;;;;2.70;0.80;;;13.20;99.90;;;;;;5055995;28;20460;-65
2023/08/08 01:01:23;;;;;;;0.93;0.75;;;13.20;99.90;;;;;;5054998;28;20128;-65
2023/08/08 01:03:49;;;;;;;1.00;0.90;;;13.20;99.90;;;;;;5053948;28;20021;-66
2023/08/08 01:06:46;;;;;;;2.33;0.70;;;13.10;99.90;;;;;;5054810;28;20028;-65
2023/08/08 01:09:18;;;;;;;1.73;0.65;;;13.10;99.90;;;;;;5055261;28;20029;-65
2023/08/08 01:11:48;;;;;;;1.02;0.82;;;13.00;99.90;;;;;;5055412;28;20374;-65
2023/08/08 01:14:14;;;;;;;1.98;0.63;;;13.00;99.90;;;;;;5053407;28;20572;-65
2023/08/08 01:16:40;;;;;;;0.98;0.82;;;13.10;99.90;;;;;;5054779;28;20021;-65
2023/08/08 01:19:07;;;;;;;0.88;0.70;;;13.00;99.90;;;;;;5055091;28;20463;-65
2023/08/08 01:21:40;;;;;;;2.58;0.63;;;13.00;99.90;;;;;;5054670;28;20119;-65
2023/08/08 01:24:11;;;;;;;2.45;1.25;;;13.00;99.90;;;;;;5054858;28;20582;-65
2023/08/08 01:26:37;;;;;;;2.65;0.93;;;13.10;99.90;;;;;;5054949;28;20379;-66
2023/08/08 01:29:03;;;;;;;2.80;0.82;;;13.10;99.90;;;;;;5054621;28;20029;-66
2023/08/08 01:31:28;;;;;;;1.33;0.70;;;13.00;99.90;;;;;;5055149;28;20518;-65
2023/08/08 01:33:54;;;;;;;2.10;1.00;;;13.00;99.90;;;;;;5053514;28;20029;-65
2023/08/08 01:36:30;;;;;;;1.58;0.95;;;13.00;99.90;;;;;;5053441;28;20029;-65
2023/08/08 01:39:03;;;;;;;2.40;1.17;;;13.00;99.90;;;;;;5054423;28;20127;-65
2023/08/08 01:41:33;;;;;;;0.95;0.85;;;13.00;99.90;;;;;;5053539;28;20032;-66
2023/08/08 01:44:00;;;;;;;0.65;0.65;;;13.10;99.90;;;;;;5054568;28;20071;-65
2023/08/08 01:46:26;;;;;;;0.65;0.65;;;13.10;99.90;;;;;;5054733;28;20116;-65
2023/08/08 01:48:52;;;;;;;1.17;0.80;;;13.10;99.90;;;;;;5054566;28;20059;-66
2023/08/08 01:51:18;;;;;;;1.02;0.63;;;13.00;99.90;;;;;;5054482;28;20025;-65
2023/08/08 01:53:43;;;;;;;1.27;1.00;;;13.00;99.90;;;;;;5054108;28;20039;-65
2023/08/08 01:56:09;;;;;;;3.35;0.80;;;13.00;99.90;;;;;;5054287;28;20459;-66
2023/08/08 01:58:34;;;;;;;0.70;0.70;;;13.00;99.90;;;;;;5053962;28;20037;-65
2023/08/08 02:01:00;;;;;;;1.50;0.90;;;13.10;99.90;;;;;;5053861;28;20114;-65
2023/08/08 02:03:25;;;;;;;1.48;0.70;;;13.00;99.90;;;;;;5053886;28;20094;-65
2023/08/08 02:05:51;;;;;;;1.35;0.85;;;13.00;99.90;;;;;;5053949;28;20172;-65
2023/08/08 02:08:18;;;;;;;3.03;0.75;;;13.00;99.90;;;;;;5054786;28;20104;-65
2023/08/08 02:10:43;;;;;;;1.08;0.65;;;13.00;99.90;;;;;;5058137;28;20017;-66
2023/08/08 02:13:09;;;;;;;2.67;0.90;;;12.90;99.90;;;;;;5055703;28;20079;-66
2023/08/08 02:15:34;;;;;;;1.63;0.80;;;12.90;99.90;;;;;;5056251;28;20036;-65
2023/08/08 02:18:00;;;;;;;1.23;0.70;;;12.90;99.90;;;;;;5053788;28;20573;-65
2023/08/08 02:20:26;;;;;;;1.95;1.08;;;12.90;99.90;;;;;;5052723;28;20025;-65
2023/08/08 02:22:52;;;;;;;1.50;0.68;;;12.90;99.90;;;;;;5052672;28;20434;-65
2023/08/08 02:25:17;;;;;;;0.60;0.60;;;12.90;99.90;;;;;;5053792;28;20438;-65
2023/08/08 02:27:43;;;;;;;0.80;0.80;;;12.90;99.90;;;;;;5052512;28;20056;-65
2023/08/08 02:30:09;;;;;;;1.08;0.98;;;12.90;99.90;;;;;;5052494;28;20382;-65
2023/08/08 02:32:35;;;;;;;1.38;1.00;;;12.90;99.90;;;;;;5053790;28;20033;-65
2023/08/08 02:35:01;;;;;;;1.85;1.17;;;12.90;99.90;;;;;;5053125;28;20040;-65
2023/08/08 02:37:26;;;;;;;3.78;1.00;;;12.90;99.90;;;;;;5053781;28;20445;-65
2023/08/08 02:39:52;;;;;;;1.17;0.80;;;12.90;99.90;;;;;;5053620;28;20021;-65
2023/08/08 02:42:18;;;;;;;0.90;0.70;;;12.80;99.90;;;;;;5053604;28;20037;-65
2023/08/08 02:44:43;;;;;;;1.10;1.00;;;12.80;99.90;;;;;;5052046;28;20052;-65
2023/08/08 02:47:09;;;;;;;2.33;0.80;;;12.80;99.90;;;;;;5052404;28;20079;-65
2023/08/08 02:49:34;;;;;;;3.67;1.05;;;12.70;99.90;;;;;;5052019;28;20033;-65
2023/08/08 02:52:01;;;;;;;1.00;0.90;;;12.70;99.90;;;;;;5053560;28;20033;-65
2023/08/08 02:54:26;;;;;;;1.33;0.88;;;12.60;99.90;;;;;;5053736;28;20115;-65
2023/08/08 02:56:52;;;;;;;1.55;0.98;;;12.60;99.90;;;;;;5053609;28;20025;-65
2023/08/08 02:59:18;;;;;;;1.15;1.02;;;12.60;99.90;;;;;;5053521;28;20469;-65
2023/08/08 03:01:43;;;;;;;1.05;0.80;;;12.50;99.90;;;;;;5053660;28;20037;-65
2023/08/08 03:04:09;;;;;;;1.73;1.02;;;12.50;99.90;;;;;;5053469;28;20086;-65
2023/08/08 03:06:34;;;;;;;1.40;1.05;;;12.40;99.90;;;;;;5053196;28;20427;-65
2023/08/08 03:09:00;;;;;;;3.45;0.90;;;12.40;99.90;;;;;;5053142;28;20044;-65
2023/08/08 03:11:26;;;;;;;4.50;1.15;;;12.30;99.90;;;;;;5052097;28;20029;-65
2023/08/08 03:13:51;;;;;;;2.13;1.00;;;12.30;99.90;;;;;;5053343;28;20029;-65
2023/08/08 03:16:17;;;;;;;1.73;1.30;;;12.30;99.90;;;;;;5051960;28;20079;-65
2023/08/08 03:18:42;;;;;;;2.28;0.80;;;12.30;99.90;;;;;;5053276;28;20021;-65
2023/08/08 03:21:08;;;;;;;2.35;1.02;;;12.20;99.90;;;;;;5053212;28;20040;-65
2023/08/08 03:23:33;;;;;;;1.20;1.10;;;12.10;99.90;;;;;;5052959;28;20064;-65
2023/08/08 03:25:59;;;;;;;1.25;0.75;;;12.00;99.90;;;;;;5052968;28;20029;-65
2023/08/08 03:28:25;;;;;;;2.50;1.00;;;12.00;99.90;;;;;;5053245;28;20467;-65
2023/08/08 03:30:50;;;;;;;1.25;1.00;;;11.90;99.90;;;;;;5052905;28;20471;-65
2023/08/08 03:33:16;;;;;;;4.13;1.15;;;11.90;99.90;;;;;;5052471;28;20462;-65
2023/08/08 03:35:43;;;;;;;2.05;0.98;;;12.00;99.90;;;;;;5053170;28;20024;-65
2023/08/08 03:38:09;;;;;;;5.88;0.93;;;12.00;99.90;;;;;;5055127;28;20546;-65
2023/08/08 03:40:34;;;;;;;1.08;0.98;;;12.10;99.90;;;;;;5057104;28;20060;-65
2023/08/08 03:43:00;;;;;;;3.20;0.90;;;12.20;99.90;;;;;;5056806;28;20044;-65
2023/08/08 03:45:25;;;;;;;3.92;1.10;;;12.20;99.90;;;;;;5055565;28;20119;-65
2023/08/08 03:47:51;;;;;;;1.33;1.00;;;12.30;99.90;;;;;;5056825;28;20021;-65
2023/08/08 03:50:17;;;;;;;1.90;0.80;;;12.40;99.90;;;;;;5056566;28;20029;-65
2023/08/08 03:52:42;;;;;;;1.52;0.70;;;12.40;99.90;;;;;;5056694;28;20068;-65
2023/08/08 03:55:08;;;;;;;1.75;1.20;;;12.60;99.90;;;;;;5056711;28;20459;-65
2023/08/08 03:57:34;;;;;;;1.15;0.85;;;12.60;99.90;;;;;;5056523;28;20033;-65
2023/08/08 03:59:59;;;;;;;1.55;1.00;;;12.80;99.90;;;;;;5056517;28;20029;-65
2023/08/08 04:02:25;;;;;;;2.05;0.90;;;12.80;99.90;;;;;;5056402;28;20423;-65
2023/08/08 04:04:51;;;;;;;1.08;0.82;;;12.80;99.90;;;;;;5055270;28;20079;-65
2023/08/08 04:07:16;;;;;;;2.78;0.90;;;12.90;99.90;;;;;;5056275;28;20467;-65
2023/08/08 04:09:42;;;;;;;2.88;0.88;;;12.90;99.90;;;;;;5055984;28;20040;-65
2023/08/08 04:12:08;;;;;;;1.90;0.50;;;13.00;99.90;;;;;;5054969;28;20485;-65
2023/08/08 04:14:34;;;;;;;1.52;0.90;;;12.90;99.90;;;;;;5055954;28;20029;-65
2023/08/08 04:16:59;;;;;;;0.68;0.60;;;12.80;99.90;;;;;;5054828;28;20079;-65
2023/08/08 04:19:25;;;;;;;1.52;0.65;;;12.80;99.90;;;;;;5055803;28;20079;-65
2023/08/08 04:21:51;;;;;;;1.45;0.90;;;12.90;99.90;;;;;;5054643;28;20064;-65
2023/08/08 04:24:17;;;;;;;1.17;0.90;;;13.00;99.90;;;;;;5055517;28;20041;-65
2023/08/08 04:26:43;;;;;;;1.55;0.77;;;13.00;99.90;;;;;;5056060;28;20021;-65
2023/08/08 04:29:08;;;;;;;0.93;0.70;;;13.10;99.90;;;;;;5055926;28;20024;-65
2023/08/08 04:31:34;;;;;;;5.13;0.82;;;13.20;99.90;;;;;;5055788;28;20055;-65
2023/08/08 04:34:01;;;;;;;0.60;0.60;;;13.30;99.90;;;;;;5055755;28;20033;-65
2023/08/08 04:36:27;;;;;;;1.33;0.80;;;13.30;99.90;;;;;;5054808;28;20048;-65
2023/08/08 04:38:53;;;;;;;0.93;0.77;;;13.40;99.90;;;;;;5054857;28;20451;-60
2023/08/08 04:41:18;;;;;;;0.70;0.60;;;13.50;99.90;;;;;;5055579;28;20040;-59
2023/08/08 04:43:44;;;;;;;0.93;0.70;;;13.70;99.90;;;;;;5055611;28;20033;-59
2023/08/08 04:46:09;;;;;;;2.22;0.82;;;13.80;99.90;;;;;;5055447;28;20096;-59
2023/08/08 04:48:37;;;;;;;2.25;0.70;;;13.90;99.90;;;;;;5054631;28;20029;-59
2023/08/08 04:51:04;;;;;;;1.80;0.80;;;14.00;99.90;;;;;;5055359;28;20021;-59
2023/08/08 04:53:30;;;;;;;1.20;0.80;;;14.10;99.90;;;;;;5055734;28;20481;-59
2023/08/08 04:55:55;;;;;;;1.20;0.77;;;14.20;99.90;;;;;;5055479;28;20025;-59
2023/08/08 04:58:21;;;;;;;1.55;0.50;;;14.10;99.90;;;;;;5055466;28;20028;-59
2023/08/08 05:00:46;;;;;;;0.68;0.57;;;14.30;99.90;;;;;;5055286;28;20025;-60
2023/08/08 05:03:13;;;;;;;1.05;0.40;;;14.40;99.90;;;;;;5054851;28;20033;-59
2023/08/08 05:05:38;;;;;;;0.60;0.60;;;14.50;99.90;;;;;;5055336;28;20021;-60
2023/08/08 05:08:04;;;;;;;1.45;0.70;;;14.60;99.90;;;;;;5055144;28;20116;-59
2023/08/08 05:10:31;;;;;;;0.85;0.63;;;14.70;99.90;;;;;;5053793;28;20455;-60
2023/08/08 05:12:57;;;;;;;1.50;0.60;;;14.80;99.90;;;;;;5054996;28;20036;-59
2023/08/08 05:15:22;;;;;;;3.50;0.80;;;14.90;99.90;;;;;;5053863;28;20059;-59
2023/08/08 05:17:48;;;;;;;0.90;0.90;;;15.00;99.90;;;;;;5053832;28;20027;-59
2023/08/08 05:20:14;;;;;;;1.58;1.00;;;15.10;99.90;;;;;;5053652;28;20441;-59
2023/08/08 05:22:39;;;;;;;0.60;0.60;;;15.20;99.90;;;;;;5054786;28;20150;-65
2023/08/08 05:25:06;;;;;;;3.42;0.85;;;15.30;99.90;;;;;;5055130;28;20067;-65
2023/08/08 05:27:31;;;;;;;1.30;0.55;;;15.40;99.90;;;;;;5055040;28;20094;-65
2023/08/08 05:29:57;;;;;;;1.15;0.68;;;15.50;99.90;;;;;;5053362;28;20482;-64
2023/08/08 05:32:22;;;;;;;0.80;0.80;;;15.50;99.90;;;;;;5054406;28;20029;-64
2023/08/08 05:34:51;;;;;;;4.00;0.80;;;15.50;99.90;;;;;;5054753;28;20374;-63
2023/08/08 05:37:16;;;;;;;1.00;0.70;;;15.50;99.90;;;;;;5054267;28;20126;-64
2023/08/08 05:39:42;;;;;;;2.13;0.50;;;15.50;99.90;;;;;;5053410;28;20495;-64
2023/08/08 05:42:07;;;;;;;4.13;0.95;;;15.50;99.90;;;;;;5054090;28;20467;-64
2023/08/08 05:44:33;;;;;;;0.90;0.43;;;15.40;99.90;;;;;;5054136;28;20103;-64
2023/08/08 05:46:59;;;;;;;0.85;0.60;;;15.40;99.90;;;;;;5054116;28;20107;-64
2023/08/08 05:49:24;;;;;;;1.27;0.60;;;15.40;99.90;;;;;;5054391;28;20076;-64
2023/08/08 05:51:50;;;;;;;0.93;0.50;;;15.50;99.90;;;;;;5054000;28;20064;-64
2023/08/08 05:54:15;;;;;;;1.35;0.70;;;15.50;99.90;;;;;;5054460;28;20031;-64
2023/08/08 05:56:41;;;;;;;2.03;0.60;;;15.60;99.90;;;;;;5052903;28;20032;-64
2023/08/08 05:59:07;;;;;;;1.20;0.70;;;15.70;99.90;;;;;;5054027;28;20474;-64
2023/08/08 06:01:33;;;;;;;1.90;0.70;;;15.90;99.90;;;;;;5052849;28;20387;-64
2023/08/08 06:03:59;;;;;;;1.13;0.40;;;16.20;99.90;;;;;;5054151;28;20032;-64
2023/08/08 06:06:26;;;;;;;1.60;0.52;;;16.40;99.90;;;;;;5052777;28;20021;-64
2023/08/08 06:08:52;;;;;;;1.27;0.60;;;16.60;99.90;;;;;;5053692;28;20039;-64
2023/08/08 06:11:17;;;;;;;1.30;1.00;;;16.70;99.90;;;;;;5052173;28;20466;-64
2023/08/08 06:13:43;;;;;;;0.63;0.40;;;16.70;99.90;;;;;;5053199;28;20108;-64
2023/08/08 06:16:09;;;;;;;1.38;0.60;;;16.70;99.90;;;;;;5053617;28;20064;-64
2023/08/08 06:18:35;;;;;;;1.20;0.63;;;16.80;99.90;;;;;;5052576;28;20021;-64
2023/08/08 06:21:02;;;;;;;1.67;0.80;;;16.90;99.90;;;;;;5053744;28;20029;-64
2023/08/08 06:23:27;;;;;;;1.15;0.60;;;17.30;99.90;;;;;;5051979;28;20375;-64
2023/08/08 06:25:53;;;;;;;2.70;0.60;;;17.50;99.90;;;;;;5054224;28;20040;-65
2023/08/08 06:28:19;;;;;;;0.90;0.52;;;17.50;99.90;;;;;;5053972;28;20032;-65
2023/08/08 06:30:44;;;;;;;0.70;0.47;;;17.50;99.90;;;;;;5053748;28;20497;-64
2023/08/08 06:33:10;;;;;;;1.60;0.57;;;17.40;99.90;;;;;;5052699;28;20035;-64
2023/08/08 06:35:36;;;;;;;0.50;0.50;;;17.20;99.90;;;;;;5053589;28;20025;-59
2023/08/08 06:38:02;;;;;;;1.25;0.63;;;17.10;99.90;;;;;;5053758;28;20029;-60
2023/08/08 06:40:28;;;;;;;1.38;0.70;;;17.10;99.90;;;;;;5053609;28;20530;-59
2023/08/08 06:42:55;;;;;;;3.45;0.63;;;17.10;99.90;;;;;;5051845;28;20140;-61
2023/08/08 06:45:21;;;;;;;1.33;0.50;;;17.10;99.90;;;;;;5053489;28;20464;-60
2023/08/08 06:47:46;;;;;;;1.42;0.60;;;17.10;99.90;;;;;;5053966;28;20021;-60
2023/08/08 06:50:12;;;;;;;0.75;0.60;;;17.30;99.90;;;;;;5053194;28;20074;-60
2023/08/08 06:52:38;;;;;;;1.23;0.60;;;17.50;99.90;;;;;;5053254;28;20029;-60
2023/08/08 06:55:04;;;;;;;2.33;0.70;;;17.60;99.90;;;;;;5053459;28;20029;-60
2023/08/08 06:57:33;;;;;;;1.30;0.75;;;17.70;99.90;;;;;;5052263;28;20471;-59
2023/08/08 06:59:59;;;;;;;1.85;0.60;;;17.80;99.90;;;;;;5053173;28;20356;-59
2023/08/08 07:02:24;;;;;;;0.65;0.52;;;17.70;99.90;;;;;;5053276;28;20536;-59
2023/08/08 07:04:50;;;;;;;0.52;0.50;;;17.90;99.90;;;;;;5053397;28;20064;-59
2023/08/08 07:07:16;;;;;;;1.45;0.77;;;18.20;99.90;;;;;;5051727;28;20025;-59
2023/08/08 07:09:42;;;;;;;0.57;0.57;;;18.60;99.90;;;;;;5053334;28;20036;-59
2023/08/08 07:12:08;;;;;;;1.25;0.60;;;18.90;99.90;;;;;;5053810;28;20025;-59
2023/08/08 07:14:33;;;;;;;2.47;0.70;;;19.00;99.60;;;;;;5056046;28;20032;-60
2023/08/08 07:16:59;;;;;;;0.95;0.35;;;19.00;99.40;;;;;;5055071;28;20025;-59
2023/08/08 07:19:25;;;;;;;0.88;0.65;;;18.90;98.80;;;;;;5057058;28;20025;-59
2023/08/08 07:21:51;;;;;;;0.50;0.50;;;18.60;99.40;;;;;;5056790;28;20033;-58
2023/08/08 07:24:17;;;;;;;1.13;0.60;;;18.40;99.30;;;;;;5040642;28;20049;-59
2023/08/08 07:26:42;;;;;;;1.50;0.50;;;18.40;99.60;;;;;;5036842;28;20036;-59
2023/08/08 07:29:08;;;;;;;0.73;0.50;;;18.40;99.40;;;;;;5037031;28;20063;-59
2023/08/08 07:31:33;;;;;;;2.53;0.80;;;18.30;99.20;;;;;;5036762;28;20026;-58
2023/08/08 07:33:59;;;;;;;2.60;0.50;;;18.10;99.20;;;;;;5036981;28;20432;-58
2023/08/08 07:36:25;;;;;;;1.55;0.60;;;18.10;99.70;;;;;;5037201;28;20075;-58
2023/08/08 07:38:51;;;;;;;0.60;0.45;;;18.30;99.60;;;;;;5036543;28;20379;-59
2023/08/08 07:41:17;;;;;;;1.85;0.60;;;18.50;99.90;;;;;;5037038;28;20116;-59
2023/08/08 07:43:43;;;;;;;1.00;0.60;;;18.60;99.20;;;;;;5036869;28;20029;-59
2023/08/08 07:46:09;;;;;;;0.88;0.60;;;18.60;99.30;;;;;;5035550;28;20026;-59
2023/08/08 07:48:35;;;;;;;2.35;0.80;;;18.70;99.20;;;;;;5036739;28;20135;-59
2023/08/08 07:51:01;;;;;;;0.70;0.57;;;19.00;98.80;;;;;;5036697;28;20104;-59
2023/08/08 07:53:26;;;;;;;0.40;0.40;;;19.60;98.60;;;;;;5036253;28;20060;-59
2023/08/08 07:55:52;;;;;;;2.05;0.60;;;20.00;97.40;;;;;;5036510;28;20026;-59
2023/08/08 07:58:17;;;;;;;1.05;0.40;;;20.10;97.40;;;;;;5036401;28;20412;-59
2023/08/08 08:00:44;;;;;;;0.77;0.70;;;20.10;96.70;;;;;;5036470;28;20049;-59
2023/08/08 08:03:10;;;;;;;2.53;0.77;;;20.20;96.70;;;;;;5036346;28;20506;-60
2023/08/08 08:05:36;;;;;;;1.70;0.70;;;20.40;96.10;;;;;;5036531;28;20034;-64
2023/08/08 08:08:02;;;;;;;4.47;0.65;;;20.20;95.80;;;;;;5036401;28;20021;-67
2023/08/08 08:10:28;;;;;;;7.90;0.75;;;19.90;96.10;;;;;;5034614;28;20116;-62
2023/08/08 08:12:57;;;;;;;1.90;0.38;;;19.80;96.20;;;;;;5036428;28;20124;-64
2023/08/08 08:15:26;;;;;;;1.13;0.60;;;19.60;96.80;;;;;;5036488;28;20025;-64
2023/08/08 08:17:52;;;;;;;1.02;0.40;;;19.30;96.80;;;;;;5035858;28;20025;-70
2023/08/08 08:20:17;;;;;;;0.88;0.60;;;19.10;97.00;;;;;;5034783;28;20356;-64
2023/08/08 08:22:43;;;;;;;0.88;0.57;;;19.10;97.50;;;;;;5035866;28;20040;-64
2023/08/08 08:25:09;;;;;;;1.77;0.57;;;18.90;97.10;;;;;;5034415;28;20399;-64
2023/08/08 08:27:36;;;;;;;0.82;0.60;;;18.50;97.90;;;;;;5035672;28;20033;-63
2023/08/08 08:30:06;;;;;;;3.00;0.65;;;18.30;98.40;;;;;;5035742;28;20056;-63
2023/08/08 08:32:34;;;;;;;4.15;0.60;;;18.20;98.70;;;;;;5036139;28;20025;-63
2023/08/08 08:35:01;;;;;;;0.60;0.50;;;18.10;98.60;;;;;;5035783;28;20112;-63
2023/08/08 08:37:26;;;;;;;1.48;0.50;;;17.80;98.90;;;;;;5035656;28;20033;-63
2023/08/08 08:39:52;;;;;;;0.55;0.55;;;17.90;99.20;;;;;;5034425;28;20379;-66
2023/08/08 08:42:18;;;;;;;1.10;0.47;;;17.90;99.40;;;;;;5035384;28;20033;-75
2023/08/08 08:44:44;;;;;;;0.82;0.50;;;17.90;98.80;;;;;;5034149;28;20061;-65
2023/08/08 08:47:12;;;;;;;1.00;0.50;;;18.00;98.80;;;;;;5034238;28;20116;-65
2023/08/08 08:49:39;;;;;;;0.73;0.60;;;18.30;98.90;;;;;;5035985;28;20447;-65
2023/08/08 08:52:05;;;;;;;1.80;0.50;;;18.70;98.50;;;;;;5035584;28;20103;-65
2023/08/08 08:54:32;;;;;;;1.10;0.63;;;19.10;97.70;;;;;;5034724;28;20057;-65
2023/08/08 08:56:58;;;;;;;0.68;0.50;;;19.60;96.70;;;;;;5034083;28;20029;-65
2023/08/08 08:59:24;;;;;;;0.70;0.70;;;19.90;95.90;;;;;;5035394;28;20148;-64
2023/08/08 09:01:51;;;;;;;0.75;0.55;;;20.50;95.20;;;;;;5034279;28;20120;-64
2023/08/08 09:04:19;;;;;;;1.70;0.70;;;21.50;94.40;;;;;;5035212;28;20036;-64
2023/08/08 09:06:46;;;;;;;1.17;0.52;;;22.30;92.00;;;;;;5035048;28;20021;-64
2023/08/08 09:09:13;;;;;;;0.60;0.60;;;23.00;89.80;;;;;;5035087;28;20061;-64
2023/08/08 09:11:39;;;;;;;1.48;0.63;;;23.20;88.40;;;;;;5033326;28;20113;-64
2023/08/08 09:14:22;;;;;;;0.93;0.60;;;23.60;86.90;;;;;;5035064;28;20021;-64
2023/08/08 09:16:49;;;;;;;1.55;0.60;;;24.00;83.00;;;;;;5033969;28;20414;-64
2023/08/08 09:19:17;;;;;;;1.80;0.50;;;24.40;82.10;;;;;;5034777;28;20034;-64
2023/08/08 09:21:43;;;;;;;1.17;0.40;;;24.90;79.80;;;;;;5033530;28;20041;-63
2023/08/08 09:24:09;;;;;;;1.13;0.60;;;25.20;76.00;;;;;;5033246;28;20050;-64
2023/08/08 09:26:35;;;;;;;0.73;0.60;;;25.40;75.00;;;;;;5034579;28;20488;-64
2023/08/08 09:29:02;;;;;;;0.43;0.35;;;25.50;73.10;;;;;;5033539;28;20489;-64
2023/08/08 09:31:30;;;;;;;1.65;0.50;;;25.20;72.10;;;;;;5034722;28;20033;-63
2023/08/08 09:33:58;;;;;;;0.85;0.52;;;24.40;72.40;;;;;;5034701;28;20409;-64
2023/08/08 09:36:24;;;;;;;1.20;0.43;;;24.30;72.20;;;;;;5034524;28;20029;-66
2023/08/08 09:38:50;;;;;;;0.88;0.57;;;23.60;73.10;;;;;;5034486;28;20400;-64
2023/08/08 09:41:15;;;;;;;2.97;0.47;;;23.20;73.00;;;;;;5033131;28;20026;-63
2023/08/08 09:43:44;;;;;;;1.95;0.52;;;23.40;71.80;;;;;;5034561;28;20028;-63
2023/08/08 09:46:10;;;;;;;1.30;0.35;;;23.90;74.00;;;;;;5034054;28;20445;-64
2023/08/08 09:48:40;;;;;;;0.95;0.40;;;24.70;70.80;;;;;;5034738;28;20113;-64
2023/08/08 09:51:07;;;;;;;0.90;0.43;;;25.10;70.30;;;;;;5033161;28;20467;-64
2023/08/08 09:53:34;;;;;;;2.17;0.70;;;25.60;68.90;;;;;;5034652;28;20056;-64
2023/08/08 09:56:03;;;;;;;0.60;0.30;;;25.70;68.40;;;;;;5033987;28;20030;-64
2023/08/08 09:58:29;;;;;;;1.33;0.77;;;26.20;68.90;;;;;;5032984;28;20025;-64
2023/08/08 10:00:55;;;;;;;1.38;0.38;;;26.30;66.10;;;;;;5033436;28;20079;-64
2023/08/08 10:03:22;;;;;;;0.40;0.40;;;26.00;65.30;;;;;;5034144;28;20451;-64
2023/08/08 10:05:48;;;;;;;4.13;0.90;;;26.50;65.50;;;;;;5034322;28;20104;-64
2023/08/08 10:08:17;;;;;;;1.38;0.40;;;26.40;63.80;;;;;;5032863;28;20120;-66
2023/08/08 10:10:46;;;;;;;4.30;0.35;;;26.50;63.90;;;;;;5034416;28;20079;-64
2023/08/08 10:13:23;;;;;;;0.63;0.32;;;25.20;64.90;;;;;;5032742;28;20064;-64
2023/08/08 10:15:49;;;;;;;1.25;0.60;;;25.00;64.90;;;;;;5034126;28;20041;-63
2023/08/08 10:18:16;;;;;;;1.15;0.50;;;24.20;65.00;;;;;;5034014;28;20060;-63
2023/08/08 10:20:47;;;;;;;1.58;0.40;;;24.70;65.20;;;;;;5033789;28;20072;-64
2023/08/08 10:23:16;;;;;;;2.65;0.52;;;24.60;66.40;;;;;;5033161;28;20136;-64
2023/08/08 10:25:55;;;;;;;0.88;0.60;;;24.70;64.50;;;;;;5033983;28;20493;-64
2023/08/08 10:28:21;;;;;;;;;;;24.40;65.10;;;;;;5033197;28;20052;-65
2023/08/08 10:30:52;;;;;;;0.25;0.25;;;24.70;64.30;;;;;;5033808;28;20354;-65
2023/08/08 10:33:17;;;;;;;1.80;0.60;;;25.00;64.50;;;;;;5033870;28;20030;-63
2023/08/08 10:36:06;;;;;;;0.65;0.30;;;24.20;65.80;;;;;;5032232;28;20026;-65
2023/08/08 10:38:50;;;;;;;2.35;0.32;;;24.50;64.80;;;;;;5032409;28;20036;-66
2023/08/08 10:41:21;;;;;;;1.00;0.40;;;24.70;64.80;;;;;;5033557;28;20547;-64
2023/08/08 10:43:56;;;;;;;1.33;0.40;;;25.10;63.30;;;;;;5034131;28;20030;-58
2023/08/08 10:46:30;;;;;;;1.35;0.22;;;25.20;62.90;;;;;;5033253;28;20032;-59
2023/08/08 10:49:05;;;;;;;1.10;0.30;;;25.20;60.10;;;;;;5033462;28;20563;-59
2023/08/08 10:51:33;;;;;;;1.15;0.40;;;25.50;60.80;;;;;;5033765;28;20033;-57
2023/08/08 10:54:04;;;;;;;0.47;0.30;;;25.50;59.30;;;;;;5033251;28;20087;-60
2023/08/08 10:56:31;;;;;;;1.70;0.40;;;26.10;59.90;;;;;;5033810;28;20026;-59
2023/08/08 10:58:57;;;;;;;1.42;0.60;;;26.10;59.40;;;;;;5033523;28;20026;-60
2023/08/08 11:01:26;;;;;;;0.30;0.30;;;26.60;60.00;;;;;;5032152;28;20026;-60
2023/08/08 11:03:52;;;;;;;0.85;0.55;;;27.00;57.10;;;;;;5033269;28;20081;-60
2023/08/08 11:06:19;;;;;;;1.95;0.40;;;26.90;56.60;;;;;;5033172;28;20032;-59
2023/08/08 11:08:44;;;;;;;0.40;0.30;;;26.70;57.30;;;;;;5033447;28;20113;-61
2023/08/08 11:11:10;;;;;;;1.40;0.40;;;27.00;58.00;;;;;;5033672;28;20486;-59
2023/08/08 11:13:36;;;;;;;1.55;0.30;;;26.90;55.90;;;;;;5033329;28;20065;-60
2023/08/08 11:16:02;;;;;;;0.40;0.40;;;26.80;56.40;;;;;;5032006;28;20459;-60
2023/08/08 11:18:28;;;;;;;0.93;0.32;;;26.60;57.30;;;;;;5033467;28;20163;-60
2023/08/08 11:20:54;;;;;;;0.77;0.30;;;26.70;56.10;;;;;;5033642;28;20036;-59
2023/08/08 11:23:20;;;;;;;1.00;0.70;;;26.50;57.00;;;;;;5033067;28;20049;-60
2023/08/08 11:25:47;;;;;;;0.75;0.68;;;26.70;55.80;;;;;;5033282;28;20018;-59
2023/08/08 11:28:14;;;;;;;1.00;0.60;;;27.10;56.80;;;;;;5033315;28;20076;-60
2023/08/08 11:30:43;;;;;;;0.30;0.20;;;27.50;56.20;;;;;;5033244;28;20026;-59
2023/08/08 11:33:12;;;;;;;0.40;0.40;;;28.10;54.70;;;;;;5032146;28;20030;-59
2023/08/08 11:35:37;;;;;;;0.68;0.30;;;28.30;53.60;;;;;;5033182;28;20032;-59
2023/08/08 11:38:04;;;;;;;0.60;0.47;;;28.40;52.90;;;;;;5032865;28;20108;-59
2023/08/08 11:40:31;;;;;;;0.82;0.50;;;28.10;52.50;;;;;;5033455;28;20033;-58
2023/08/08 11:42:58;;;;;;;0.40;0.40;;;28.00;51.90;;;;;;5033105;28;20036;-59
2023/08/08 11:45:24;;;;;;;0.63;0.45;;;27.70;51.80;;;;;;5031812;28;20034;-58
2023/08/08 11:47:51;;;;;;;0.35;0.30;;;27.80;53.30;;;;;;5033053;28;20053;-61
2023/08/08 11:50:20;;;;;;;0.32;0.32;;;28.40;52.40;;;;;;5032958;28;20029;-64
2023/08/08 11:52:46;;;;;;;0.50;0.40;;;28.20;50.70;;;;;;5033242;28;20360;-63
2023/08/08 11:55:13;;;;;;;1.10;0.30;;;28.40;50.10;;;;;;5033074;28;20029;-63
2023/08/08 11:57:40;;;;;;;0.40;0.40;;;28.20;50.40;;;;;;5031874;28;20030;-63
2023/08/08 12:00:07;;;;;;;2.33;0.50;;;28.00;50.50;;;;;;5036579;28;20087;-63
2023/08/08 12:02:34;;;;;;;0.20;0.20;;;27.30;48.60;;;;;;5036803;28;20033;-63
2023/08/08 12:05:11;;;;;;;0.65;0.40;;;27.40;50.10;;;;;;5035176;28;20037;-63
2023/08/08 12:07:37;;;;;;;0.47;0.40;;;27.60;49.80;;;;;;5036515;28;20053;-63
2023/08/08 12:10:12;;;;;;;0.30;0.30;;;27.60;50.10;;;;;;5035087;28;20086;-64
2023/08/08 12:12:39;;;;;;;0.50;0.38;;;27.90;50.50;;;;;;5036812;28;20033;-66
2023/08/08 12:15:06;;;;;;;2.05;0.60;;;28.20;48.80;;;;;;5036292;28;20075;-64
2023/08/08 12:17:32;;;;;;;0.68;0.25;;;28.50;49.10;;;;;;5034943;28;20036;-64
2023/08/08 12:20:05;;;;;;;0.60;0.50;;;28.40;48.30;;;;;;5036170;28;20443;-64
2023/08/08 12:22:31;;;;;;;1.95;0.75;;;28.20;47.90;;;;;;5036122;28;20034;-64
2023/08/08 12:24:57;;;;;;;2.35;0.45;;;27.80;47.90;;;;;;5035872;28;20057;-64
2023/08/08 12:27:22;;;;;;;0.55;0.30;;;27.80;49.10;;;;;;5035633;28;20029;-65
2023/08/08 12:29:48;;;;;;;1.05;0.35;;;28.70;49.30;;;;;;5035930;28;20029;-65
2023/08/08 12:32:14;;;;;;;0.50;0.40;;;29.20;48.60;;;;;;5035816;28;20052;-66
2023/08/08 12:34:39;;;;;;;1.35;0.40;;;29.30;47.40;;;;;;5036393;28;20037;-65
2023/08/08 12:37:05;;;;;;;0.52;0.43;;;29.10;46.70;;;;;;5035648;28;20045;-65
2023/08/08 12:39:30;;;;;;;2.20;0.40;;;29.40;47.00;;;;;;5035546;28;20022;-65
2023/08/08 12:41:56;;;;;;;1.13;0.38;;;29.90;47.20;;;;;;5035901;28;20463;-65
2023/08/08 12:44:22;;;;;;;1.67;0.50;;;29.80;45.80;;;;;;5035686;28;20407;-64